Flight Track Log - Related Links

Times and Time Zones

All times are in EDT time to prevent confusion due to time zone crossing. See the JBU493 flight status page for this flight to view local times or setup timezone preferences in your user account.

Time Position Orientation Groundspeed Altitude Reporting Facility
EDT Latitude Longitude Course Direction KTS MPH feet Rate Location/Type
Wed 09:35:31 AM 42.3500 -71.0167 276° West 175 201 1,000  Level KA90
Wed 09:36:19 AM 42.3167 -70.9833 144° Southeast 208 239 2,400 2,263 Climbing KA90
Wed 09:38:00 AM 42.3017 -70.7170 172° South  Level FlightAware Approximate
Wed 09:38:18 AM 42.3303 -70.7972 84° East 298 343 7,300  Level Boston Center
Wed 09:39:00 AM 42.2216 -70.8440 240° Southwest  Level FlightAware Approximate
Wed 09:39:16 AM 42.2811 -70.7200 131° Southeast 248 285 9,700  Level Boston Center
Wed 09:40:00 AM 42.1860 -70.9981 276° West  Level FlightAware Approximate
Wed 09:40:18 AM 42.1983 -70.7531 196° South 215 247 11,100  Level Boston Center
Wed 09:41:16 AM 42.1686 -70.8686 251° West 208 239 12,500 1,650 Climbing Boston Center
Wed 09:42:18 AM 42.1639 -70.9864 267° West 345 397 14,400 1,869 Climbing Boston Center
Wed 09:43:18 AM 42.1742 -71.1403 275° West 368 423 16,300 1,686 Climbing Boston Center
Wed 09:44:19 AM 42.1839 -71.2717 276° West 387 445 17,800 1,438 Climbing Boston Center
Wed 09:45:19 AM 42.1833 -71.4397 270° West 398 458 19,200 1,475 Climbing Boston Center
Wed 09:46:17 AM 42.1803 -71.5800 268° West 410 472 20,700 1,525 Climbing Boston Center
Wed 09:47:17 AM 42.1794 -71.7314 270° West 410 472 22,200 1,289 Climbing Boston Center
Wed 09:48:18 AM 42.1761 -71.8911 268° West 420 483 23,300 1,091 Climbing Boston Center
Wed 09:49:18 AM 42.1747 -72.0536 269° West 426 490 24,400 1,059 Climbing Boston Center
Wed 09:50:17 AM 42.1708 -72.2217 268° West 442 509 25,400 1,000 Climbing Boston Center
Wed 09:51:18 AM 42.1669 -72.3925 268° West 448 516 26,400 1,091 Climbing Boston Center
Wed 09:52:18 AM 42.1628 -72.5661 268° West 459 528 27,600 1,100 Climbing Boston Center
Wed 09:53:18 AM 42.1311 -72.7369 256° West 464 534 28,600 1,041 Climbing Boston Center
Wed 09:54:19 AM 42.0764 -72.9100 247° West 464 534 29,700 1,119 Climbing Boston Center
Wed 09:55:16 AM 42.0089 -73.0603 239° Southwest 464 534 30,800 1,220 Climbing Boston Center
Wed 09:56:17 AM 41.9433 -73.2078 239° Southwest 464 534 32,100 960 Climbing Boston Center
Wed 09:58:11 AM 41.8222 -73.4683 238° Southwest 458 527 33,600 655 Climbing New York Center
Wed 09:59:11 AM 41.7603 -73.6133 240° Southwest 463 533 34,000 200 Climbing New York Center
Wed 10:00:11 AM 41.6967 -73.7547 239° Southwest 458 527 34,000  Level New York Center
Wed 10:01:11 AM 41.6200 -73.8931 233° Southwest 464 534 34,000  Level New York Center
Wed 10:02:11 AM 41.5356 -74.0219 229° Southwest 469 540 34,000  Level New York Center
Wed 10:03:11 AM 41.4439 -74.1642 229° Southwest 469 540 34,000 450 Level New York Center
Wed 10:04:11 AM 41.3611 -74.2869 228° Southwest 463 533 34,900 900 Climbing New York Center
Wed 10:05:11 AM 41.2892 -74.3936 228° Southwest 448 516 35,800 500 Climbing New York Center
Wed 10:06:11 AM 41.2147 -74.5139 231° Southwest 442 509 35,900 50 Climbing New York Center
Wed 10:07:11 AM 41.1461 -74.6422 235° Southwest 437 503 35,900  Level New York Center
Wed 10:08:11 AM 41.0772 -74.7731 235° Southwest 437 503 35,900  Level New York Center
Wed 10:09:11 AM 41.0061 -74.8981 233° Southwest 437 503 35,900 50 Level New York Center
Wed 10:10:11 AM 40.9511 -75.0378 243° Southwest 432 497 36,000 50 Climbing New York Center
Wed 10:11:11 AM 40.9164 -75.1892 253° West 435 501 36,000  Level New York Center
Wed 10:12:11 AM 40.8728 -75.3511 250° West 430 495 36,000  Level New York Center
Wed 10:13:11 AM 40.8336 -75.5019 251° West 425 489 36,000  Level New York Center
Wed 10:14:11 AM 40.7964 -75.6475 251° West 425 489 36,000  Level New York Center
Wed 10:15:11 AM 40.7589 -75.7983 252° West 425 489 36,000  Level New York Center
Wed 10:16:11 AM 40.7211 -75.9461 251° West 430 495 36,000  Level New York Center
Wed 10:17:11 AM 40.6833 -76.0967 252° West 435 501 36,000  Level New York Center
Wed 10:18:11 AM 40.6817 -76.2197 269° West 426 490 36,000  Level New York Center
Wed 10:19:11 AM 40.6925 -76.3903 275° West 426 490 36,000  Level New York Center
Wed 10:20:11 AM 40.7036 -76.5472 275° West 426 490 36,000  Level New York Center
Wed 10:21:11 AM 40.7150 -76.6989 276° West 426 490 36,000  Level New York Center
Wed 10:22:11 AM 40.7258 -76.8558 275° West 426 490 36,000  Level New York Center
Wed 10:23:11 AM 40.7364 -77.0128 275° West 431 496 36,000  Level New York Center
Wed 10:24:11 AM 40.7469 -77.1672 275° West 431 496 36,000  Level New York Center
Wed 10:25:11 AM 40.7586 -77.3356 275° West 431 496 36,000  Level New York Center
Wed 10:26:52 AM 40.7722 -77.5889 274° West 422 486 36,000  Level Cleveland Center
Wed 10:27:52 AM 40.7822 -77.7422 275° West 422 486 36,000  Level Cleveland Center
Wed 10:28:52 AM 40.7903 -77.9008 274° West 427 491 36,000  Level Cleveland Center
Wed 10:29:52 AM 40.7958 -78.0569 273° West 427 491 36,000  Level Cleveland Center
Wed 10:30:52 AM 40.8036 -78.2158 274° West 427 491 36,000  Level Cleveland Center
Wed 10:31:52 AM 40.8089 -78.3747 273° West 432 497 36,000  Level Cleveland Center
Wed 10:32:52 AM 40.8142 -78.5475 272° West 437 503 36,000  Level Cleveland Center
Wed 10:33:52 AM 40.8211 -78.7092 273° West 437 503 36,000  Level Cleveland Center
Wed 10:34:52 AM 40.8278 -78.8681 273° West 437 503 36,000  Level Cleveland Center
Wed 10:35:52 AM 40.8342 -79.0217 273° West 437 503 36,000  Level Cleveland Center
Wed 10:36:52 AM 40.8403 -79.1778 273° West 437 503 36,000  Level Cleveland Center
Wed 10:37:52 AM 40.8464 -79.3342 273° West 437 503 36,000  Level Cleveland Center
Wed 10:38:52 AM 40.8519 -79.4906 273° West 437 503 36,000  Level Cleveland Center
Wed 10:39:52 AM 40.8556 -79.6469 272° West 437 503 36,000  Level Cleveland Center
Wed 10:40:52 AM 40.8608 -79.8033 273° West 432 497 36,000  Level Cleveland Center
Wed 10:41:52 AM 40.8639 -79.9600 272° West 432 497 36,000  Level Cleveland Center
Wed 10:42:52 AM 40.8689 -80.1164 272° West 439 505 36,000  Level Cleveland Center
Wed 10:43:52 AM 40.8736 -80.2756 272° West 439 505 36,000  Level Cleveland Center
Wed 10:44:52 AM 40.8758 -80.4322 271° West 439 505 36,000  Level Cleveland Center
Wed 10:45:52 AM 40.8803 -80.5886 272° West 439 505 36,000  Level Cleveland Center
Wed 10:46:52 AM 40.8822 -80.7450 271° West 439 505 36,000  Level Cleveland Center
Wed 10:47:52 AM 40.8861 -80.8881 272° West 439 505 36,000  Level Cleveland Center
Wed 10:48:52 AM 40.8897 -81.0472 272° West 439 505 36,000  Level Cleveland Center
Wed 10:49:52 AM 40.8908 -81.2039 271° West 439 505 36,000  Level Cleveland Center
Wed 10:50:52 AM 40.8922 -81.3603 271° West 439 505 36,000  Level Cleveland Center
Wed 10:51:52 AM 40.8931 -81.5169 270° West 439 505 36,000  Level Cleveland Center
Wed 10:52:52 AM 40.8956 -81.6928 271° West 434 499 36,000  Level Cleveland Center
Wed 10:53:52 AM 40.8981 -81.8494 271° West 434 499 36,000  Level Cleveland Center
Wed 10:54:52 AM 40.9006 -82.0061 271° West 439 505 36,000  Level Cleveland Center
Wed 10:55:52 AM 40.9025 -82.1656 271° West 439 505 36,000  Level Cleveland Center
Wed 10:56:52 AM 40.9044 -82.3222 271° West 439 505 36,000  Level Cleveland Center
Wed 10:57:52 AM 40.9039 -82.4786 270° West 439 505 36,000  Level Cleveland Center
Wed 10:58:52 AM 40.9056 -82.6244 271° West 439 505 36,000  Level Cleveland Center
Wed 10:59:52 AM 40.9069 -82.7839 271° West 439 505 36,000  Level Cleveland Center
Wed 11:00:52 AM 40.9078 -82.9458 270° West 439 505 36,000  Level Cleveland Center
Wed 11:01:52 AM 40.8836 -83.0989 258° West 439 505 36,000  Level Cleveland Center
Wed 11:02:52 AM 40.8464 -83.2650 254° West 429 494 36,000  Level Cleveland Center
Wed 11:04:23 AM 40.7978 -83.4794 253° West 434 499 36,000  Level Indianapolis Center
Wed 11:05:25 AM 40.7617 -83.6419 254° West 439 505 36,000  Level Indianapolis Center
Wed 11:06:27 AM 40.7261 -83.7961 253° West 440 506 36,000  Level Indianapolis Center
Wed 11:07:28 AM 40.6897 -83.9500 253° West 439 505 36,000  Level Indianapolis Center
Wed 11:08:30 AM 40.6528 -84.1064 253° West 445 512 36,000  Level Indianapolis Center
Wed 11:09:32 AM 40.5931 -84.2800 246° West 445 512 36,000  Level Indianapolis Center
Wed 11:10:34 AM 40.5381 -84.4317 245° Southwest 457 526 36,000  Level Indianapolis Center
Wed 11:11:35 AM 40.4819 -84.5856 244° Southwest 463 533 36,000  Level Indianapolis Center
Wed 11:12:37 AM 40.4275 -84.7444 246° West 472 543 36,000  Level Indianapolis Center
Wed 11:13:39 AM 40.4094 -84.9064 262° West 479 551 36,000  Level Indianapolis Center
Wed 11:14:41 AM 40.4100 -85.0803 270° West 479 551 36,000  Level Indianapolis Center
Wed 11:15:43 AM 40.4125 -85.2856 271° West 473 544 36,000 -48 Level Indianapolis Center
Wed 11:16:45 AM 40.4139 -85.4539 271° West 467 537 35,900 -49 Descending Indianapolis Center
Wed 11:17:46 AM 40.4156 -85.6233 271° West 469 540 35,900 46 Level Indianapolis Center
Wed 11:18:55 AM 40.4169 -85.8258 271° West 474 545 36,000 46 Climbing Chicago Center
Wed 11:19:57 AM 40.4175 -85.9961 270° West 472 543 36,000  Level Chicago Center
Wed 11:20:59 AM 40.4175 -86.1675 270° West 475 547 36,000  Level Chicago Center
Wed 11:22:01 AM 40.4178 -86.3367 270° West 471 542 36,000  Level Chicago Center
Wed 11:23:03 AM 40.4181 -86.5392 270° West 468 539 36,000 -48 Level Chicago Center
Wed 11:24:05 AM 40.4164 -86.7072 269° West 466 536 35,900  Descending Chicago Center
Wed 11:25:07 AM 40.4181 -86.8733 271° West 461 531 36,000 48 Climbing Chicago Center
Wed 11:26:09 AM 40.4158 -87.0461 269° West 470 541 36,000  Level Chicago Center
Wed 11:27:11 AM 40.4139 -87.2192 269° West 478 550 36,000  Level Chicago Center
Wed 11:28:13 AM 40.4114 -87.4253 269° West 475 547 36,000  Level Chicago Center
Wed 11:29:15 AM 40.4108 -87.5761 270° West 464 534 36,000  Level Chicago Center
Wed 11:30:17 AM 40.4092 -87.7458 269° West 465 535 36,000  Level Chicago Center
Wed 11:31:19 AM 40.4064 -87.9464 269° West 460 529 36,000  Level Chicago Center
Wed 11:32:21 AM 40.4039 -88.1142 269° West 460 529 36,000  Level Chicago Center
Wed 11:33:23 AM 40.4019 -88.2806 269° West 458 527 36,000  Level Chicago Center
Wed 11:34:25 AM 40.3986 -88.4475 269° West 458 527 36,000  Level Chicago Center
Wed 11:35:27 AM 40.3950 -88.6236 269° West 457 526 36,000  Level Chicago Center
Wed 11:36:29 AM 40.3919 -88.7908 269° West 457 526 36,000  Level Chicago Center
Wed 11:37:31 AM 40.3881 -88.9564 268° West 455 524 36,000  Level Chicago Center
Wed 11:38:33 AM 40.3842 -89.1228 268° West 455 524 36,000  Level Chicago Center
Wed 11:39:35 AM 40.3792 -89.2894 268° West 456 525 36,000  Level Chicago Center
Wed 11:40:37 AM 40.3731 -89.4889 268° West 455 524 36,000  Level Chicago Center
Wed 11:41:39 AM 40.3683 -89.6581 268° West 460 529 36,000  Level Chicago Center
Wed 11:42:41 AM 40.3639 -89.8283 268° West 463 533 36,000  Level Chicago Center
Wed 11:43:34 AM 40.3594 -89.9647 268° West 462 532 36,000  Level Kansas City Center
Wed 11:44:45 AM 40.3536 -90.1644 268° West 456 525 36,000  Level Chicago Center
Wed 11:45:47 AM 40.3475 -90.3336 267° West 461 531 36,000 -51 Level Chicago Center
Wed 11:46:43 AM 40.3417 -90.4975 267° West 452 520 35,900  Descending Kansas City Center
Wed 11:47:43 AM 40.3356 -90.6619 267° West 451 519 36,000 49 Climbing Kansas City Center
Wed 11:48:45 AM 40.3294 -90.8292 267° West 456 525 36,000  Level Kansas City Center
Wed 11:49:48 AM 40.3233 -90.9947 267° West 456 525 36,000  Level Kansas City Center
Wed 11:50:50 AM 40.3156 -91.1600 267° West 455 524 36,000 -49 Level Kansas City Center
Wed 11:51:51 AM 40.3086 -91.3281 267° West 455 524 35,900  Descending Kansas City Center
Wed 11:52:54 AM 40.3006 -91.4928 266° West 457 526 36,000 47 Climbing Kansas City Center
Wed 11:53:58 AM 40.2928 -91.6922 267° West 460 529 36,000  Level Kansas City Center
Wed 11:54:59 AM 40.2844 -91.8578 266° West 460 529 36,000  Level Kansas City Center
Wed 11:55:59 AM 40.2764 -92.0250 266° West 462 532 36,000  Level Kansas City Center
Wed 11:57:04 AM 40.2686 -92.1900 267° West 459 528 36,000  Level Kansas City Center
Wed 11:58:04 AM 40.2589 -92.3750 266° West 455 524 36,000  Level Kansas City Center
Wed 11:59:07 AM 40.2503 -92.5319 266° West 453 521 36,000  Level Kansas City Center
Wed 12:00:09 PM 40.2419 -92.7144 267° West 451 519 36,000  Level Kansas City Center
Wed 12:01:10 PM 40.2311 -92.8714 265° West 452 520 36,000  Level Kansas City Center
Wed 12:02:11 PM 40.2217 -93.0508 266° West 452 520 36,000  Level Kansas City Center
Wed 12:03:14 PM 40.2125 -93.2139 266° West 453 521 36,000  Level Kansas City Center
Wed 12:04:16 PM 40.2031 -93.3781 266° West 455 524 36,000  Level Kansas City Center
Wed 12:05:20 PM 40.1925 -93.5417 265° West 456 525 36,000  Level Kansas City Center
Wed 12:06:20 PM 40.1803 -93.7389 265° West 457 526 36,000  Level Kansas City Center
Wed 12:07:21 PM 40.1700 -93.9025 265° West 456 525 36,000  Level Kansas City Center
Wed 12:08:25 PM 40.1586 -94.0656 265° West 455 524 36,000  Level Kansas City Center
Wed 12:09:28 PM 40.1461 -94.2364 265° West 453 521 36,000  Level Kansas City Center
Wed 12:10:29 PM 40.1336 -94.4217 265° West 457 526 36,000  Level Kansas City Center
Wed 12:11:29 PM 40.1231 -94.5797 265° West 458 527 36,000  Level Kansas City Center
Wed 12:12:33 PM 40.1111 -94.7361 264° West 456 525 36,000  Level Kansas City Center
Wed 12:13:34 PM 40.0975 -94.9208 265° West 457 526 36,000  Level Kansas City Center
Wed 12:14:38 PM 40.0856 -95.0772 264° West 456 525 36,000  Level Kansas City Center
Wed 12:15:39 PM 40.0717 -95.2600 264° West 455 524 36,000  Level Kansas City Center
Wed 12:16:40 PM 40.0597 -95.4169 264° West 455 524 36,000  Level Kansas City Center
Wed 12:17:44 PM 40.0442 -95.6006 264° West 457 526 36,000  Level Kansas City Center
Wed 12:18:44 PM 40.0314 -95.7558 264° West 455 524 36,000  Level Kansas City Center
Wed 12:19:48 PM 40.0169 -95.9397 264° West 456 525 36,000  Level Kansas City Center
Wed 12:20:49 PM 40.0033 -96.0967 264° West 456 525 36,000  Level Kansas City Center
Wed 12:21:50 PM 39.9897 -96.2594 264° West 455 524 36,000  Level Kansas City Center
Wed 12:22:54 PM 39.9728 -96.4569 264° West 456 525 36,000  Level Kansas City Center
Wed 12:23:30 PM 39.9628 -96.5597 263° West 454 522 36,000  Level Minneapolis Center
Wed 12:24:32 PM 39.9478 -96.7225 263° West 452 520 36,000 -48 Level Minneapolis Center
Wed 12:25:34 PM 39.9328 -96.8836 263° West 450 518 35,900  Descending Minneapolis Center
Wed 12:26:36 PM 39.9194 -97.0461 264° West 450 518 36,000 387 Climbing Minneapolis Center
Wed 12:27:38 PM 39.9569 -97.1944 288° West 442 509 36,700 532 Climbing Minneapolis Center
Wed 12:28:40 PM 40.0328 -97.3453 303° West 432 497 37,100 384 Climbing Minneapolis Center
Wed 12:29:43 PM 40.0986 -97.4764 303° West 432 497 37,500 432 Climbing Minneapolis Center
Wed 12:30:45 PM 40.1261 -97.6272 283° West 440 506 38,000 242 Climbing Minneapolis Center
Wed 12:31:47 PM 40.1011 -97.7853 258° West 443 510 38,000  Level Minneapolis Center
Wed 12:32:49 PM 40.0744 -97.9439 258° West 445 512 38,000  Level Minneapolis Center
Wed 12:33:51 PM 40.0486 -98.1019 258° West 445 512 38,000  Level Minneapolis Center
Wed 12:34:53 PM 40.0219 -98.2589 258° West 443 510 38,000  Level Minneapolis Center
Wed 12:35:55 PM 39.9906 -98.4500 258° West 445 512 38,000  Level Minneapolis Center
Wed 12:36:57 PM 39.9631 -98.6075 257° West 446 513 38,000  Level Minneapolis Center
Wed 12:37:59 PM 39.9369 -98.7642 258° West 443 510 38,000  Level Minneapolis Center
Wed 12:39:01 PM 39.9094 -98.9219 257° West 444 511 38,000  Level Minneapolis Center
Wed 12:40:03 PM 39.8814 -99.0778 257° West 443 510 38,000  Level Minneapolis Center
Wed 12:41:05 PM 39.8392 -99.2306 250° West 454 522 38,000  Level Minneapolis Center
Wed 12:42:07 PM 39.7853 -99.3753 244° Southwest 450 518 38,000  Level Minneapolis Center
Wed 12:43:10 PM 39.7200 -99.5497 244° Southwest 447 514 38,000  Level Minneapolis Center
Wed 12:44:12 PM 39.6661 -99.6950 244° Southwest 446 513 38,000  Level Minneapolis Center
Wed 12:45:14 PM 39.6117 -99.8392 244° Southwest 446 513 38,000  Level Minneapolis Center
Wed 12:46:16 PM 39.5583 -99.9822 244° Southwest 444 511 38,000  Level Minneapolis Center
Wed 12:47:18 PM 39.5042 -100.1250 244° Southwest 442 509 38,000  Level Minneapolis Center
Wed 12:48:27 PM 39.4458 -100.2739 243° Southwest 442 509 38,000  Level Denver Center
Wed 12:49:29 PM 39.3853 -100.4331 244° Southwest 441 507 38,000  Level Denver Center
Wed 12:50:31 PM 39.3236 -100.5906 243° Southwest 441 507 38,000  Level Denver Center
Wed 12:51:33 PM 39.2711 -100.7264 244° Southwest 441 507 38,000  Level Denver Center
Wed 12:52:35 PM 39.2103 -100.8842 244° Southwest 440 506 38,000  Level Denver Center
Wed 12:53:37 PM 39.1567 -101.0194 243° Southwest 441 507 38,000 -144 Level Denver Center
Wed 12:54:40 PM 39.0942 -101.1797 243° Southwest 445 512 37,700 -960 Descending Denver Center
Wed 12:55:42 PM 39.0425 -101.3125 243° Southwest 434 499 36,000 -871 Descending Denver Center
Wed 12:56:44 PM 38.9783 -101.4728 243° Southwest 443 510 35,900 -484 Descending Denver Center
Wed 12:57:46 PM 38.9242 -101.6081 243° Southwest 446 513 35,000 -919 Descending Denver Center
Wed 12:58:48 PM 38.8692 -101.7742 247° West 454 522 34,000 -484 Descending Denver Center
Wed 12:59:50 PM 38.8475 -101.9283 260° West 459 528 34,000  Level Denver Center
Wed 01:00:52 PM 38.8456 -102.1067 269° West 452 520 34,000 -339 Level Denver Center
Wed 01:01:54 PM 38.8419 -102.2614 268° West 454 522 33,300 -919 Descending Denver Center
Wed 01:02:56 PM 38.8394 -102.4167 269° West 457 526 32,100 -629 Descending Denver Center
Wed 01:03:58 PM 38.8386 -102.5986 270° West 458 527 32,000 -48 Descending Denver Center
Wed 01:05:00 PM 38.8639 -102.7714 281° West 461 531 32,000  Level Denver Center
Wed 01:06:02 PM 38.9150 -102.9208 294° West 459 528 32,000 -435 Level Denver Center
Wed 01:07:04 PM 38.9822 -103.0575 302° West 453 521 31,100 -1,790 Descending Denver Center
Wed 01:08:06 PM 39.0492 -103.1978 302° West 459 528 28,300 -2,177 Descending Denver Center
Wed 01:09:08 PM 39.1122 -103.3303 302° West 437 503 26,600 -2,177 Descending Denver Center
Wed 01:10:10 PM 39.1836 -103.4819 301° West 412 474 23,800 -2,468 Descending Denver Center
Wed 01:11:12 PM 39.2406 -103.6044 301° West 402 463 21,500 -2,081 Descending Denver Center
Wed 01:12:14 PM 39.2961 -103.7222 301° West 390 449 19,500 -1,839 Descending Denver Center
Wed 01:13:16 PM 39.3497 -103.8369 301° West 378 435 17,700 -1,210 Descending Denver Center
Wed 01:14:18 PM 39.3911 -103.9294 300° West 353 406 17,000 -1,113 Descending Denver Center
Wed 01:15:20 PM 39.4014 -104.0694 275° West 323 372 15,400 -1,403 Descending Denver Center
Wed 01:16:22 PM 39.4075 -104.1792 274° West 288 331 14,100 -1,200 Descending Denver Center
Wed 01:17:25 PM 39.4261 -104.2733 284° West 274 315 12,900 -1,065 Descending Denver Center
Wed 01:18:26 PM 39.4492 -104.3494 291° West 270 311 11,900 -1,016 Descending Denver Center
Wed 01:19:29 PM 39.4917 -104.4539 298° West 272 313 10,800 -1,104 Descending Denver Center
Wed 01:20:31 PM 39.5481 -104.5133 321° Northwest 263 303 9,600 -1,113 Descending Denver Center
Wed 01:21:33 PM 39.6042 -104.5794 318° Northwest 256 295 8,500 -774 Descending Denver Center
Wed 01:22:35 PM 39.6547 -104.6200 328° Northwest 220 253 8,000 -726 Descending Denver Center
Wed 01:23:37 PM 39.7092 -104.6431 342° North 198 228 7,000 -629 Descending Denver Center
Wed 01:24:39 PM 39.7589 -104.6431 360° North 181 208 6,700 -532 Descending Denver Center
Wed 01:25:41 PM 39.8050 -104.6428 360° North 156 180 5,900 -677 Descending Denver Center
Wed 01:26:43 PM 39.8469 -104.6414 North 145 167 5,300 -581 Descending Denver Center
Wed 01:28:00 PM 39.8500 -104.6667 348° North  Level FlightAware Approximate
Wed 01:35:00 PM 39.8617 -104.6732 348° North  Level Estimated

Login

Don't have an account? Register now (free) for customized features, flight alerts, and more!